Flight Track Log - Related Links

Times and Time Zones

All times are in EDT time to prevent confusion due to time zone crossing. See the EJA831 flight status page for this flight to view local times or setup timezone preferences in your user account.

Time Position Orientation Groundspeed Altitude Reporting Facility
EDT Latitude Longitude Course Direction KTS MPH feet Rate Location/Type
Tue 05:12:19 PM 33.7500 -116.3000 129° Southeast 160 184 1,400  Level Southern California TRACON
Tue 05:13:20 PM 33.7167 -116.2500 129° Southeast 225 259 4,800 3,244 Climbing Southern California TRACON
Tue 05:14:34 PM 33.7703 -116.2303 17° North 232 267 8,700 2,118 Climbing Los Angeles Center
Tue 05:15:36 PM 33.8336 -116.2647 336° Northwest 246 283 9,600 2,032 Climbing Los Angeles Center
Tue 05:16:38 PM 33.8908 -116.3178 322° Northwest 257 296 12,900 3,048 Climbing Los Angeles Center
Tue 05:17:40 PM 33.9639 -116.3847 323° Northwest 269 310 15,900 2,516 Climbing Los Angeles Center
Tue 05:18:42 PM 34.0261 -116.4458 321° Northwest 282 325 18,100 2,032 Climbing Los Angeles Center
Tue 05:19:44 PM 34.0925 -116.5086 322° Northwest 298 343 20,100 1,984 Climbing Los Angeles Center
Tue 05:20:46 PM 34.1750 -116.5483 338° Northwest 316 364 22,200 1,984 Climbing Los Angeles Center
Tue 05:21:48 PM 34.2536 -116.5997 332° Northwest 338 389 24,200 1,920 Climbing Los Angeles Center
Tue 05:22:51 PM 34.2731 -116.7081 282° West 335 386 26,200 1,935 Climbing Los Angeles Center
Tue 05:23:52 PM 34.2867 -116.8192 278° West 335 386 28,200 1,951 Climbing Los Angeles Center
Tue 05:24:54 PM 34.3022 -116.9525 278° West 335 386 30,200 1,694 Climbing Los Angeles Center
Tue 05:25:56 PM 34.3150 -117.0650 278° West 335 386 31,700 1,403 Climbing Los Angeles Center
Tue 05:26:58 PM 34.3289 -117.1775 279° West 338 389 33,100 1,104 Climbing Los Angeles Center
Tue 05:28:01 PM 34.3403 -117.2883 277° West 338 389 34,000 432 Climbing Los Angeles Center
Tue 05:29:03 PM 34.3575 -117.4356 278° West 367 422 34,000  Level Los Angeles Center
Tue 05:30:05 PM 34.3719 -117.5656 278° West 385 443 34,000  Level Los Angeles Center
Tue 05:31:07 PM 34.3872 -117.7081 277° West 397 457 34,000  Level Los Angeles Center
Tue 05:32:09 PM 34.4017 -117.8428 277° West 401 461 34,000  Level Los Angeles Center
Tue 05:33:11 PM 34.4172 -117.9775 278° West 402 463 34,000  Level Los Angeles Center
Tue 05:34:13 PM 34.4628 -118.0981 295° West 403 464 34,000  Level Los Angeles Center
Tue 05:35:15 PM 34.5311 -118.2208 304° West 397 457 34,000  Level Los Angeles Center
Tue 05:36:17 PM 34.5933 -118.3308 305° West 398 458 34,000  Level Los Angeles Center
Tue 05:37:19 PM 34.6478 -118.4328 303° West 398 458 34,000  Level Los Angeles Center
Tue 05:38:21 PM 34.7136 -118.5511 304° West 394 453 34,000  Level Los Angeles Center
Tue 05:39:23 PM 34.7744 -118.6600 304° West 392 451 34,000  Level Los Angeles Center
Tue 05:40:25 PM 34.8453 -118.7894 304° West 389 448 34,000  Level Los Angeles Center
Tue 05:41:27 PM 34.9094 -118.9044 304° West 395 455 34,000  Level Los Angeles Center
Tue 05:42:29 PM 34.9694 -119.0175 303° West 397 457 34,000  Level Los Angeles Center
Tue 05:43:31 PM 35.0303 -119.1256 305° West 392 451 34,000  Level Los Angeles Center
Tue 05:44:33 PM 35.0894 -119.2328 304° West 383 441 34,000  Level Los Angeles Center
Tue 05:45:35 PM 35.1492 -119.3444 303° West 387 445 34,000  Level Los Angeles Center
Tue 05:46:38 PM 35.2200 -119.4742 304° West 384 442 34,000  Level Los Angeles Center
Tue 05:47:40 PM 35.2794 -119.5844 303° West 386 444 34,000  Level Los Angeles Center
Tue 05:48:42 PM 35.3383 -119.6936 303° West 388 447 34,000  Level Los Angeles Center
Tue 05:49:44 PM 35.3964 -119.8031 303° West 385 443 34,000  Level Los Angeles Center
Tue 05:50:46 PM 35.4553 -119.9119 304° West 384 442 34,000  Level Los Angeles Center
Tue 05:51:48 PM 35.5253 -120.0444 303° West 385 443 34,000  Level Los Angeles Center
Tue 05:52:50 PM 35.5733 -120.1350 303° West 386 444 34,000  Level Los Angeles Center
Tue 05:53:52 PM 35.6436 -120.2681 303° West 386 444 34,000  Level Los Angeles Center
Tue 05:54:54 PM 35.6961 -120.3758 301° West 388 447 34,000  Level Los Angeles Center
Tue 05:55:56 PM 35.7406 -120.4931 295° West 387 445 34,000  Level Los Angeles Center
Tue 05:56:58 PM 35.7694 -120.6464 283° West 388 447 34,000  Level Los Angeles Center
Tue 05:58:00 PM 35.7883 -120.7758 280° West 388 447 34,000  Level Los Angeles Center
Tue 05:59:03 PM 35.8078 -120.9053 281° West 387 445 34,000  Level Los Angeles Center
Tue 06:00:06 PM 35.8494 -121.0256 293° West 388 447 34,000  Level Los Angeles Center
Tue 06:01:30 PM 35.9467 -121.1653 311° West 385 443 34,000 -455 Level Oakland Center
Tue 06:02:31 PM 36.0333 -121.2467 323° Northwest 384 442 32,900 -1,659 Descending Oakland Center
Tue 06:03:33 PM 36.1342 -121.3469 321° Northwest 385 443 30,600 -2,049 Descending Oakland Center
Tue 06:04:34 PM 36.2239 -121.4356 321° Northwest 407 468 28,700 -1,869 Descending Oakland Center
Tue 06:05:35 PM 36.3131 -121.5244 321° Northwest 408 470 26,800 -1,854 Descending Oakland Center
Tue 06:06:37 PM 36.3997 -121.6125 321° Northwest 405 466 24,900 -1,902 Descending Oakland Center
Tue 06:07:38 PM 36.4825 -121.6944 321° Northwest 382 440 22,900 -1,918 Descending Oakland Center
Tue 06:08:39 PM 36.5611 -121.7764 320° Northwest 368 423 21,000 -1,805 Descending Oakland Center
Tue 06:09:41 PM 36.6428 -121.8597 321° Northwest 365 420 19,200 -1,561 Descending Oakland Center
Tue 06:10:42 PM 36.7206 -121.9394 321° Northwest 360 414 17,800 -1,525 Descending Oakland Center
Tue 06:11:43 PM 36.8117 -121.9831 339° North 346 398 16,100 -1,707 Descending Oakland Center
Tue 06:12:45 PM 36.9078 -122.0094 348° North 351 404 14,300 -1,707 Descending Oakland Center
Tue 06:13:46 PM 36.9997 -122.0322 349° North 340 391 12,600 -1,820 Descending Oakland Center
Tue 06:14:47 PM 37.1078 -122.0617 348° North 332 382 10,600 -1,366 Descending Oakland Center
Tue 06:15:49 PM 37.1911 -122.0822 349° North 305 351 9,800 -1,024 Descending Oakland Center
Tue 06:16:50 PM 37.2611 -122.1006 348° North 262 302 8,500 -1,279 Descending Oakland Center
Tue 06:17:51 PM 37.3328 -122.1203 348° North 262 302 7,200 -1,353 Descending Oakland Center
Tue 06:18:32 PM 37.3833 -122.1333 348° North 275 316 6,200 -1,073 Descending Northern Cal TRACON
Tue 06:19:54 PM 37.4736 -122.1581 348° North 257 296 5,000 -1,091 Descending Oakland Center
Tue 06:20:55 PM 37.5322 -122.1928 335° Northwest 240 276 3,600 -1,415 Descending Oakland Center
Tue 06:21:57 PM 37.5700 -122.2578 306° West 237 273 2,100 -1,122 Descending Oakland Center
Tue 06:22:58 PM 37.5950 -122.3075 302° West 192 221 1,300 -934 Descending Oakland Center
Tue 06:23:59 PM 37.6119 -122.3531 295° West 145 167 200 -1,082 Descending Oakland Center
Tue 06:25:00 PM 37.6167 -122.3667 322° Northwest  Level FlightAware Approximate
Tue 06:32:00 PM 37.6191 -122.3752 322° Northwest  Level Estimated

Login

Don't have an account? Register now (free) for customized features, flight alerts, and more!